Time;durP1;ratioP1;P1;durP2;ratioP2;P2;SDS_P1;SDS_P2;PMS_P1;PMS_P2;Temp;Humidity;BMP_temperature;BMP_pressure;BME280_temperature;BME280_humidity;BME280_pressure;Samples;Min_cycle;Max_cycle;Signal;HPM_P1;HPM_P2
2021/08/14 00:02:07;;;;;;;;;4.50;4.00;;;;;23.52;47.50;101875.06;5001373;28;45228;-81
2021/08/14 00:04:32;;;;;;;;;3.25;2.25;;;;;23.52;47.78;101874.22;5000922;28;55132;-81
2021/08/14 00:06:58;;;;;;;;;4.00;3.00;;;;;23.51;47.42;101872.47;5001016;28;46022;-80
2021/08/14 00:09:23;;;;;;;;;5.00;3.50;;;;;23.49;47.51;101873.44;5001348;28;45207;-82
2021/08/14 00:11:48;;;;;;;;;2.25;2.00;;;;;23.44;47.70;101869.31;5000985;28;45688;-81
2021/08/14 00:14:14;;;;;;;;;6.00;4.50;;;;;23.40;47.53;101865.91;5001375;28;45347;-81
2021/08/14 00:16:39;;;;;;;;;3.50;3.00;;;;;23.41;47.68;101880.41;4999867;28;45245;-81
2021/08/14 00:19:04;;;;;;;;;2.00;2.00;;;;;23.34;47.83;101873.63;5000955;28;45233;-81
2021/08/14 00:21:30;;;;;;;;;2.75;2.75;;;;;23.33;47.91;101871.88;5001011;28;45338;-82
2021/08/14 00:23:56;;;;;;;;;3.00;3.00;;;;;23.24;47.81;101859.78;5000925;28;45396;-80
2021/08/14 00:26:21;;;;;;;;;4.00;3.50;;;;;23.29;48.04;101861.19;5000438;28;46452;-80
2021/08/14 00:28:46;;;;;;;;;3.00;3.00;;;;;23.28;47.68;101859.44;5001234;28;45302;-83
2021/08/14 00:31:12;;;;;;;;;5.00;3.00;;;;;23.27;47.60;101863.16;5000960;28;45390;-81
2021/08/14 00:33:37;;;;;;;;;5.00;2.00;;;;;23.20;47.70;101852.78;5000717;28;45486;-82
2021/08/14 00:36:03;;;;;;;;;3.00;3.00;;;;;23.10;47.73;101845.25;5000705;28;45603;-82
2021/08/14 00:38:28;;;;;;;;;4.25;3.25;;;;;23.12;47.74;101856.00;5000848;28;45407;-81
2021/08/14 00:40:54;;;;;;;;;3.75;3.00;;;;;23.10;47.80;101852.53;5000573;28;45358;-82
2021/08/14 00:43:20;;;;;;;;;2.75;2.50;;;;;23.02;47.99;101849.41;5000632;28;45311;-82
2021/08/14 00:45:46;;;;;;;;;3.75;3.75;;;;;22.98;47.69;101846.03;5000688;28;45460;-83
2021/08/14 00:48:11;;;;;;;;;3.75;3.00;;;;;23.00;48.00;101857.69;5000757;28;45510;-80
2021/08/14 00:50:38;;;;;;;;;3.75;2.75;;;;;22.97;47.86;101857.91;5000667;28;45330;-81
2021/08/14 00:53:05;;;;;;;;;3.25;2.00;;;;;22.98;48.02;101866.94;5000707;28;45142;-80
2021/08/14 00:55:30;;;;;;;;;3.25;3.00;;;;;22.98;47.85;101864.22;5000080;28;46137;-81
2021/08/14 00:57:55;;;;;;;;;3.25;3.25;;;;;22.98;48.10;101867.81;5000541;28;45201;-81
2021/08/14 01:00:23;;;;;;;;;3.00;3.00;;;;;22.99;48.19;101871.41;5000453;28;45902;-80
2021/08/14 01:02:48;;;;;;;;;3.75;2.25;;;;;22.97;47.61;101862.47;5000387;28;45335;-81
2021/08/14 01:05:16;;;;;;;;;3.75;2.25;;;;;22.98;47.89;101861.50;5000414;28;45291;-80
2021/08/14 01:07:43;;;;;;;;;5.75;4.00;;;;;22.96;47.76;101863.47;5000457;28;45398;-81
2021/08/14 01:10:09;;;;;;;;;4.00;3.50;;;;;22.90;47.84;101854.72;5000282;28;45275;-80
2021/08/14 01:12:34;;;;;;;;;3.00;3.00;;;;;22.93;47.74;101865.41;5000342;28;45478;-81
2021/08/14 01:14:59;;;;;;;;;3.00;3.00;;;;;22.88;47.91;101862.09;5000142;28;46286;-80
2021/08/14 01:17:25;;;;;;;;;3.00;3.00;;;;;22.92;48.16;101860.03;5000214;28;45386;-81
2021/08/14 01:19:50;;;;;;;;;4.50;2.00;;;;;22.92;48.05;101860.03;5000216;28;45208;-81
2021/08/14 01:22:16;;;;;;;;;2.50;2.00;;;;;22.88;47.47;101858.53;5000261;28;46081;-81
2021/08/14 01:24:45;;;;;;;;;7.25;3.75;;;;;22.84;47.79;101855.13;4999646;28;46093;-82
2021/08/14 01:27:14;;;;;;;;;2.50;2.25;;;;;22.77;47.35;101851.09;5000818;28;45369;-82
2021/08/14 01:29:40;;;;;;;;;3.75;3.75;;;;;22.75;48.04;101847.56;5003695;28;45171;-81
2021/08/14 01:32:07;;;;;;;;;2.00;2.00;;;;;22.74;47.46;101843.97;5003628;28;45153;-81
2021/08/14 01:34:34;;;;;;;;;3.50;3.00;;;;;22.75;47.56;101848.47;5003477;28;45385;-83
2021/08/14 01:37:00;;;;;;;;;3.25;2.50;;;;;22.70;47.62;101852.44;5003674;28;45304;-80
2021/08/14 01:39:25;;;;;;;;;2.75;2.75;;;;;22.65;47.53;101852.75;5003615;28;45354;-80
2021/08/14 01:42:03;;;;;;;;;4.75;4.00;;;;;22.64;48.02;101844.72;5003263;28;45309;-82
2021/08/14 01:44:30;;;;;;;;;3.00;3.00;;;;;22.63;48.13;101846.53;5003263;28;46084;-80
2021/08/14 01:46:55;;;;;;;;;5.00;3.25;;;;;22.58;47.93;101844.09;5003568;28;45445;-82
2021/08/14 01:49:21;;;;;;;;;3.25;2.25;;;;;22.60;47.83;101846.72;5003248;28;45327;-81
2021/08/14 01:51:47;;;;;;;;;5.00;2.50;;;;;22.56;47.75;101846.06;5003311;28;45387;-81
2021/08/14 01:54:13;;;;;;;;;3.75;3.75;;;;;22.54;48.23;101841.72;5003040;28;46139;-83
2021/08/14 01:56:40;;;;;;;;;4.00;2.00;;;;;22.52;47.94;101838.19;5003160;28;45524;-81
2021/08/14 01:59:06;;;;;;;;;3.00;3.00;;;;;22.48;47.99;101836.66;5003164;28;45527;-82
2021/08/14 02:01:32;;;;;;;;;4.75;2.00;;;;;22.50;48.31;101846.50;5003391;28;45304;-82
2021/08/14 02:03:57;;;;;;;;;3.00;3.00;;;;;22.46;47.77;101841.34;5002831;28;45981;-81
2021/08/14 02:06:25;;;;;;;;;4.00;2.25;;;;;22.42;47.91;101837.94;5003178;28;45266;-82
2021/08/14 02:08:50;;;;;;;;;4.25;3.00;;;;;22.33;47.96;101824.94;5003098;28;45471;-81
2021/08/14 02:11:19;;;;;;;;;8.25;4.00;;;;;22.35;48.23;101833.84;5002817;28;45471;-82
2021/08/14 02:13:47;;;;;;;;;2.00;2.00;;;;;22.34;48.38;101834.84;5002862;28;46276;-82
2021/08/14 02:16:13;;;;;;;;;3.50;2.50;;;;;22.33;47.75;101841.25;5003099;28;45217;-82
2021/08/14 02:18:38;;;;;;;;;3.75;3.00;;;;;22.30;47.68;101833.28;5002997;28;45420;-82
2021/08/14 02:21:05;;;;;;;;;4.25;2.75;;;;;22.27;48.26;101833.44;5002881;28;45282;-81
2021/08/14 02:23:31;;;;;;;;;2.00;2.00;;;;;22.19;48.21;101821.22;5002749;28;46261;-82
2021/08/14 02:25:58;;;;;;;;;3.25;3.25;;;;;22.23;48.48;101824.63;5002431;28;45403;-81
2021/08/14 02:28:23;;;;;;;;;3.00;3.00;;;;;22.23;48.39;101821.91;5003085;28;45359;-80
2021/08/14 02:30:49;;;;;;;;;3.75;2.50;;;;;22.21;48.21;101813.84;5002823;28;45363;-80
2021/08/14 02:33:14;;;;;;;;;4.50;3.25;;;;;22.20;48.23;101822.09;5002468;28;45773;-81
2021/08/14 02:35:40;;;;;;;;;4.75;3.00;;;;;22.19;48.84;101823.94;5002696;28;45311;-81
2021/08/14 02:38:05;;;;;;;;;3.00;2.25;;;;;22.20;48.79;101820.28;5002813;28;45311;-82
2021/08/14 02:40:32;;;;;;;;;3.50;3.00;;;;;22.17;48.28;101812.31;5001437;28;45438;-81
2021/08/14 02:42:57;;;;;;;;;5.00;3.00;;;;;22.20;48.45;101816.66;5002336;28;46183;-80
2021/08/14 02:45:23;;;;;;;;;3.75;2.50;;;;;22.18;48.24;101816.75;5002533;28;45233;-83
2021/08/14 02:47:48;;;;;;;;;5.00;2.75;;;;;22.17;48.03;101820.47;5002487;28;45211;-80
2021/08/14 02:50:13;;;;;;;;;3.00;3.00;;;;;22.15;48.25;101814.25;5002498;28;45436;-80
2021/08/14 02:52:39;;;;;;;;;4.75;4.00;;;;;22.12;47.98;101817.16;5002131;28;47439;-80
2021/08/14 02:55:05;;;;;;;;;5.00;4.50;;;;;22.09;48.73;101814.63;5001936;28;45391;-80
2021/08/14 02:57:30;;;;;;;;;2.25;2.00;;;;;22.08;48.47;101812.88;4996363;28;45240;-81
2021/08/14 02:59:55;;;;;;;;;4.00;3.50;;;;;22.07;48.89;101803.00;4995450;28;45301;-82
2021/08/14 03:02:21;;;;;;;;;3.00;3.00;;;;;22.08;48.38;101803.84;5001992;28;45331;-80
2021/08/14 03:04:46;;;;;;;;;5.00;2.25;;;;;22.08;48.80;101802.00;5002189;28;45431;-80
2021/08/14 03:07:11;;;;;;;;;4.00;2.25;;;;;22.08;48.58;101802.00;5002230;28;45320;-80
2021/08/14 03:09:37;;;;;;;;;3.50;3.50;;;;;22.08;48.66;101798.41;5002119;28;45411;-82
2021/08/14 03:12:03;;;;;;;;;5.75;3.50;;;;;22.02;49.03;101794.25;5001869;28;47071;-80
2021/08/14 03:14:28;;;;;;;;;3.50;3.00;;;;;22.04;48.79;101796.88;5002173;28;45300;-82
2021/08/14 03:16:54;;;;;;;;;4.00;2.00;;;;;22.03;49.58;101796.00;5002197;28;45289;-82
2021/08/14 03:19:19;;;;;;;;;3.00;2.00;;;;;22.00;49.35;101796.19;5002037;28;45260;-83
2021/08/14 03:21:44;;;;;;;;;6.75;3.50;;;;;22.01;48.94;101787.06;5001847;28;45310;-81
2021/08/14 03:24:10;;;;;;;;;3.75;3.75;;;;;22.01;49.04;101789.78;5001927;28;45455;-81
2021/08/14 03:26:35;;;;;;;;;2.25;2.25;;;;;22.00;49.35;101782.59;5001693;28;45223;-82
2021/08/14 03:29:00;;;;;;;;;4.00;3.00;;;;;21.99;49.40;101783.59;5001876;28;45418;-80
2021/08/14 03:31:26;;;;;;;;;4.00;3.00;;;;;21.96;49.30;101781.91;5001656;28;45241;-80
2021/08/14 03:33:51;;;;;;;;;2.75;2.25;;;;;21.99;49.31;101789.88;5001579;28;45280;-81
2021/08/14 03:36:17;;;;;;;;;3.00;3.00;;;;;22.00;49.95;101790.75;5001788;28;45451;-80
2021/08/14 03:38:43;;;;;;;;;3.00;3.00;;;;;21.98;49.00;101781.81;5001841;28;45145;-81
2021/08/14 03:41:09;;;;;;;;;8.25;4.25;;;;;21.97;49.24;101780.97;5001150;28;45924;-80
2021/08/14 03:43:36;;;;;;;;;5.50;3.25;;;;;21.97;49.15;101778.25;5001656;28;45300;-81
2021/08/14 03:46:02;;;;;;;;;4.25;3.00;;;;;21.92;49.35;101774.94;5001741;28;45330;-80
2021/08/14 03:48:28;;;;;;;;;7.50;4.00;;;;;21.96;49.35;101778.34;5000225;28;45551;-79
2021/08/14 03:50:53;;;;;;;;;4.50;3.75;;;;;21.90;49.49;101778.72;5001373;28;46165;-81
2021/08/14 03:53:18;;;;;;;;;5.00;4.25;;;;;21.88;49.94;101775.22;5001453;28;48878;-80
2021/08/14 03:55:44;;;;;;;;;2.50;2.50;;;;;21.90;49.12;101778.72;5001220;28;45308;-82
2021/08/14 03:58:09;;;;;;;;;2.00;2.00;;;;;21.83;49.03;101772.81;4990161;28;45270;-82
2021/08/14 04:00:35;;;;;;;;;3.50;3.50;;;;;21.77;49.59;101774.06;4999389;28;46289;-79
2021/08/14 04:03:00;;;;;;;;;4.50;4.00;;;;;21.76;49.43;101772.31;5001320;28;45311;-80
2021/08/14 04:05:26;;;;;;;;;4.25;4.00;;;;;21.69;49.24;101764.66;5001425;28;45320;-79
2021/08/14 04:07:51;;;;;;;;;2.25;2.25;;;;;21.67;49.95;101772.03;5001243;28;45388;-80
2021/08/14 04:10:17;;;;;;;;;5.50;3.00;;;;;21.63;49.35;101771.34;5000955;28;46431;-80
2021/08/14 04:12:42;;;;;;;;;2.75;2.25;;;;;21.53;49.80;101751.16;5001110;28;45153;-81
2021/08/14 04:15:08;;;;;;;;;4.00;3.25;;;;;21.58;49.67;101770.75;5001262;28;45209;-83
2021/08/14 04:17:34;;;;;;;;;5.25;3.50;;;;;21.55;50.22;101768.22;5001150;28;45609;-79
2021/08/14 04:20:00;;;;;;;;;4.00;3.75;;;;;21.54;49.93;101769.22;5000794;28;47056;-79
2021/08/14 04:22:26;;;;;;;;;4.50;4.00;;;;;21.51;49.67;101756.69;5001293;28;45801;-80
2021/08/14 04:24:51;;;;;;;;;4.00;4.00;;;;;21.51;49.83;101758.53;5000791;28;45474;-80
2021/08/14 04:27:17;;;;;;;;;5.50;5.50;;;;;21.50;49.82;101764.94;5000949;28;45446;-79
2021/08/14 04:29:42;;;;;;;;;7.75;5.00;;;;;21.51;50.23;101761.25;5000842;28;46343;-80
2021/08/14 04:32:07;;;;;;;;;7.25;5.00;;;;;21.52;50.03;101757.56;5000581;28;49468;-79
2021/08/14 04:34:33;;;;;;;;;3.25;3.25;;;;;21.53;50.52;101753.88;5000844;28;45462;-79
2021/08/14 04:36:58;;;;;;;;;5.75;4.00;;;;;21.52;49.68;101755.72;5001020;28;45564;-79
2021/08/14 04:39:23;;;;;;;;;7.00;3.00;;;;;21.48;49.77;101746.00;5000333;28;48445;-79
2021/08/14 04:41:49;;;;;;;;;3.75;3.75;;;;;21.43;49.52;101745.38;5000676;28;45313;-81
2021/08/14 04:44:15;;;;;;;;;5.50;5.50;;;;;21.35;50.44;101729.59;5000713;28;45498;-80
2021/08/14 04:46:40;;;;;;;;;5.75;5.75;;;;;21.30;49.69;101734.44;5000657;28;45284;-81
2021/08/14 04:49:05;;;;;;;;;2.00;2.00;;;;;21.37;50.01;101745.81;5000344;28;46388;-79
2021/08/14 04:51:31;;;;;;;;;7.50;4.00;;;;;21.26;50.81;101732.88;5000634;28;45296;-80
2021/08/14 04:53:56;;;;;;;;;4.00;4.00;;;;;21.34;50.15;101743.25;5000565;28;45239;-80
2021/08/14 04:56:22;;;;;;;;;6.25;4.00;;;;;21.34;50.17;101740.56;5000159;28;45232;-79
2021/08/14 04:58:48;;;;;;;;;5.50;5.00;;;;;21.34;50.25;101746.84;5000329;28;46290;-79
2021/08/14 05:01:13;;;;;;;;;5.00;4.50;;;;;21.31;50.56;101738.88;5000465;28;45177;-81
2021/08/14 05:03:38;;;;;;;;;7.50;4.25;;;;;21.31;50.68;101738.88;5000065;28;45341;-80
2021/08/14 05:06:06;;;;;;;;;6.25;5.25;;;;;21.35;50.31;101745.00;5000529;28;45526;-78
2021/08/14 05:08:31;;;;;;;;;6.25;5.00;;;;;21.33;50.33;101747.81;5000156;28;45315;-80
2021/08/14 05:10:56;;;;;;;;;6.50;5.00;;;;;21.32;50.27;101740.66;5000122;28;45403;-79
2021/08/14 05:13:22;;;;;;;;;4.00;4.00;;;;;21.33;50.55;101741.50;5000313;28;45423;-79
2021/08/14 05:15:47;;;;;;;;;5.00;3.75;;;;;21.31;50.90;101733.44;5000428;28;45256;-79
2021/08/14 05:18:16;;;;;;;;;7.25;5.25;;;;;21.32;50.22;101742.47;5000075;28;45355;-80
2021/08/14 05:20:41;;;;;;;;;3.75;3.75;;;;;21.32;50.39;101748.78;5000216;28;45435;-80
2021/08/14 05:23:06;;;;;;;;;5.00;4.50;;;;;21.29;50.46;101754.41;5000170;28;45304;-80
2021/08/14 05:25:31;;;;;;;;;6.75;4.00;;;;;21.32;50.45;101746.06;4999930;28;45478;-80
2021/08/14 05:27:57;;;;;;;;;6.25;4.50;;;;;21.29;50.69;101747.13;4999890;28;45216;-79
2021/08/14 05:30:22;;;;;;;;;4.75;3.00;;;;;21.21;50.94;101737.72;5000006;28;47979;-81
2021/08/14 05:32:48;;;;;;;;;6.25;4.00;;;;;21.19;50.85;101740.53;4999848;28;45219;-79
2021/08/14 05:35:13;;;;;;;;;5.00;4.00;;;;;21.23;51.05;101746.63;5000232;28;45156;-79
2021/08/14 05:37:39;;;;;;;;;4.75;4.75;;;;;21.23;50.81;101747.53;4999861;28;45934;-80
2021/08/14 05:40:05;;;;;;;;;6.25;3.75;;;;;21.25;50.87;101756.44;4999760;28;45217;-81
2021/08/14 05:42:30;;;;;;;;;3.00;3.00;;;;;21.21;50.40;101751.28;4999981;28;45323;-81
2021/08/14 05:44:56;;;;;;;;;4.00;4.00;;;;;21.21;50.74;101752.16;4999976;28;45586;-80
2021/08/14 05:47:21;;;;;;;;;6.25;4.25;;;;;21.24;50.99;101761.97;4999686;28;45449;-81
2021/08/14 05:49:46;;;;;;;;;4.50;3.50;;;;;21.22;51.04;101766.63;4999914;28;45366;-80
2021/08/14 05:52:12;;;;;;;;;5.75;4.50;;;;;21.23;51.21;101765.63;4999950;28;45220;-80
2021/08/14 05:54:37;;;;;;;;;4.00;4.00;;;;;21.21;51.11;101773.88;4999620;28;45277;-81
2021/08/14 05:57:03;;;;;;;;;6.00;4.25;;;;;21.18;51.24;101759.63;4999420;28;45955;-80
2021/08/14 05:59:28;;;;;;;;;4.75;4.75;;;;;21.20;51.25;101768.53;4999919;28;45280;-80
2021/08/14 06:01:53;;;;;;;;;6.00;4.00;;;;;21.19;51.21;101769.53;4999630;28;45354;-79
2021/08/14 06:04:19;;;;;;;;;5.25;4.00;;;;;21.21;51.01;101773.00;4999542;28;45469;-80
2021/08/14 06:06:44;;;;;;;;;7.25;5.00;;;;;21.24;51.15;101775.53;4999434;28;46069;-79
2021/08/14 06:09:11;;;;;;;;;3.75;3.75;;;;;21.27;52.15;101780.78;4999932;28;45339;-79
2021/08/14 06:11:36;;;;;;;;;5.50;4.00;;;;;21.27;51.34;101783.50;4999437;28;45156;-79
2021/08/14 06:14:02;;;;;;;;;5.50;5.00;;;;;21.29;51.61;101782.44;5000013;28;45397;-80
2021/08/14 06:16:27;;;;;;;;;3.25;3.25;;;;;21.27;51.37;101772.63;5002955;28;46047;-79
2021/08/14 06:18:53;;;;;;;;;6.00;5.00;;;;;21.30;51.19;101777.88;5003086;28;45364;-80
2021/08/14 06:21:18;;;;;;;;;6.50;5.00;;;;;21.34;51.79;101778.56;5002861;28;45221;-79
2021/08/14 06:23:43;;;;;;;;;3.00;3.00;;;;;21.36;51.32;101774.78;5003032;28;45445;-79
2021/08/14 06:26:09;;;;;;;;;4.75;4.75;;;;;21.35;51.57;101772.16;5002265;28;46430;-79
2021/08/14 06:28:34;;;;;;;;;6.00;3.75;;;;;21.40;50.78;101781.78;5002927;28;45258;-79
2021/08/14 06:31:00;;;;;;;;;7.25;5.50;;;;;21.38;51.37;101778.25;5001509;28;45241;-79
2021/08/14 06:33:25;;;;;;;;;5.00;4.00;;;;;21.39;51.50;101777.31;5002673;28;45459;-79
2021/08/14 06:35:50;;;;;;;;;7.25;4.50;;;;;21.39;50.87;101774.59;5002555;28;46093;-79
2021/08/14 06:38:15;;;;;;;;;4.00;4.00;;;;;21.45;51.47;101790.53;5002684;28;45220;-80
2021/08/14 06:40:41;;;;;;;;;3.75;3.25;;;;;21.49;50.83;101779.50;5002310;28;45405;-80
2021/08/14 06:43:06;;;;;;;;;6.00;4.50;;;;;21.46;50.68;101781.38;5002534;28;45280;-79
2021/08/14 06:45:32;;;;;;;;;5.50;5.00;;;;;21.47;51.00;101787.75;5002366;28;45355;-78
2021/08/14 06:47:57;;;;;;;;;6.50;4.50;;;;;21.48;50.41;101775.03;5002203;28;45237;-79
2021/08/14 06:50:22;;;;;;;;;5.00;4.75;;;;;21.48;50.48;101772.31;5002615;28;45411;-79
2021/08/14 06:52:48;;;;;;;;;4.00;4.00;;;;;21.46;50.51;101770.50;5002204;28;45384;-79
2021/08/14 06:55:13;;;;;;;;;4.50;4.00;;;;;21.50;51.20;101776.69;5002094;28;45265;-79
2021/08/14 06:57:38;;;;;;;;;4.50;4.00;;;;;21.56;50.66;101779.00;5002336;28;45365;-78
2021/08/14 07:00:05;;;;;;;;;6.00;5.00;;;;;21.55;50.32;101780.00;5002276;28;45300;-79
2021/08/14 07:02:30;;;;;;;;;5.75;5.75;;;;;21.61;50.69;101785.03;5002163;28;45605;-80
2021/08/14 07:04:56;;;;;;;;;5.00;4.75;;;;;21.61;50.87;101774.16;5002182;28;46044;-78
2021/08/14 07:07:21;;;;;;;;;4.75;4.25;;;;;21.66;51.31;101776.59;5002199;28;45221;-80
2021/08/14 07:09:47;;;;;;;;;5.25;3.75;;;;;21.67;50.72;101777.44;5002059;28;45365;-79
2021/08/14 07:12:14;;;;;;;;;5.25;3.75;;;;;21.66;50.63;101779.31;5002108;28;45225;-80
2021/08/14 07:14:40;;;;;;;;;4.00;3.50;;;;;21.71;50.58;101781.75;5002024;28;46544;-79
2021/08/14 07:17:05;;;;;;;;;7.00;5.00;;;;;21.75;50.29;101776.03;5002092;28;45503;-78
2021/08/14 07:19:31;;;;;;;;;5.50;4.50;;;;;21.81;49.73;101781.06;5002179;28;45300;-80
2021/08/14 07:21:57;;;;;;;;;6.25;5.50;;;;;21.86;50.57;101779.91;5001875;28;45462;-79
2021/08/14 07:24:22;;;;;;;;;3.75;3.75;;;;;21.84;49.48;101777.28;5001617;28;45377;-79
2021/08/14 07:26:47;;;;;;;;;5.00;3.75;;;;;21.88;49.78;101778.81;5001576;28;45458;-80
2021/08/14 07:29:12;;;;;;;;;5.00;4.75;;;;;21.92;49.23;101784.94;5001990;28;45514;-79
2021/08/14 07:31:38;;;;;;;;;3.50;3.50;;;;;21.91;48.75;101785.91;5002045;28;45383;-80
2021/08/14 07:34:03;;;;;;;;;4.50;4.50;;;;;21.92;49.10;101776.78;5001348;28;47371;-82
2021/08/14 07:36:28;;;;;;;;;5.75;4.25;;;;;21.93;48.98;101767.66;5001965;28;45463;-81
2021/08/14 07:38:54;;;;;;;;;6.50;4.75;;;;;21.96;49.12;101768.31;5001773;28;45310;-82
2021/08/14 07:41:19;;;;;;;;;5.00;5.00;;;;;21.99;49.72;101767.28;5001429;28;45299;-82
2021/08/14 07:43:45;;;;;;;;;4.00;3.00;;;;;22.06;49.62;101767.75;5001520;28;45449;-83
2021/08/14 07:46:10;;;;;;;;;5.50;3.50;;;;;22.10;49.62;101775.63;5001531;28;45296;-81
2021/08/14 07:48:36;;;;;;;;;6.50;4.00;;;;;22.17;48.82;101770.66;5001540;28;45349;-82
2021/08/14 07:51:01;;;;;;;;;5.25;5.00;;;;;22.19;49.37;101769.56;5001441;28;45180;-82
2021/08/14 07:53:27;;;;;;;;;4.00;3.00;;;;;22.27;49.23;101768.19;5001447;28;45366;-83
2021/08/14 07:55:52;;;;;;;;;4.25;4.25;;;;;22.31;47.83;101767.91;5001121;28;45308;-83
2021/08/14 07:58:18;;;;;;;;;5.00;4.00;;;;;22.34;48.22;101764.13;5001482;28;45359;-82
2021/08/14 08:00:43;;;;;;;;;4.25;3.00;;;;;22.38;49.21;101758.38;5001364;28;45290;-82
2021/08/14 08:03:10;;;;;;;;;5.00;4.00;;;;;22.44;48.00;101762.53;5001247;28;45222;-83
2021/08/14 08:05:36;;;;;;;;;4.25;3.00;;;;;22.45;47.83;101753.38;5001089;28;45334;-82
2021/08/14 08:08:06;;;;;;;;;3.50;3.50;;;;;22.52;46.96;101756.56;5001517;28;45383;-83
2021/08/14 08:10:33;;;;;;;;;3.50;3.50;;;;;22.59;46.84;101755.22;5001063;28;45529;-82
2021/08/14 08:12:59;;;;;;;;;3.00;2.25;;;;;22.63;46.85;101747.72;5001060;28;46243;-83
2021/08/14 08:15:25;;;;;;;;;4.00;2.75;;;;;22.64;46.26;101744.88;5001184;28;46812;-82
2021/08/14 08:17:51;;;;;;;;;4.25;2.50;;;;;22.72;46.10;101747.06;5001101;28;45209;-81
2021/08/14 08:20:18;;;;;;;;;5.75;5.50;;;;;22.75;46.20;101755.91;5001180;28;45544;-82
2021/08/14 08:22:44;;;;;;;;;3.25;3.25;;;;;22.78;45.76;101754.81;5000855;28;45370;-82
2021/08/14 08:25:11;;;;;;;;;4.00;4.00;;;;;22.82;45.99;101750.03;5000840;28;45268;-83
2021/08/14 08:27:41;;;;;;;;;3.50;3.50;;;;;22.85;45.94;101747.97;5001059;28;45748;-82
2021/08/14 08:30:07;;;;;;;;;5.00;3.75;;;;;22.89;45.18;101751.38;5001040;28;45496;-81
2021/08/14 08:32:33;;;;;;;;;3.50;3.00;;;;;22.92;45.25;101749.31;5000844;28;46327;-82
2021/08/14 08:34:58;;;;;;;;;3.50;3.50;;;;;22.96;45.20;101746.38;5000901;28;45350;-82
2021/08/14 08:37:24;;;;;;;;;5.75;5.00;;;;;22.99;45.59;101746.16;5000351;28;45251;-82
2021/08/14 08:39:49;;;;;;;;;4.00;3.50;;;;;23.05;45.14;101748.47;5000545;28;47167;-83
2021/08/14 08:42:15;;;;;;;;;6.00;6.00;;;;;23.01;44.98;101733.34;5000482;28;45371;-82
2021/08/14 08:44:40;;;;;;;;;6.00;3.75;;;;;23.10;45.04;101752.66;5000911;28;45328;-82
2021/08/14 08:47:08;;;;;;;;;7.50;5.00;;;;;23.09;44.62;101737.28;5000793;28;45473;-83
2021/08/14 08:49:34;;;;;;;;;4.75;4.00;;;;;23.16;44.54;101742.31;5000809;28;45725;-81
2021/08/14 08:51:59;;;;;;;;;5.25;4.25;;;;;23.19;44.51;101748.41;5000333;28;46074;-84
2021/08/14 08:54:25;;;;;;;;;8.00;8.00;;;;;23.19;44.50;101739.34;5000051;28;45345;-82
2021/08/14 08:56:50;;;;;;;;;8.75;6.00;;;;;23.21;44.85;101730.13;5000598;28;45216;-84
2021/08/14 08:59:16;;;;;;;;;6.00;6.00;;;;;23.28;44.57;101736.84;5000715;28;45317;-81
2021/08/14 09:01:42;;;;;;;;;5.75;5.75;;;;;23.35;44.48;101744.59;5000386;28;46132;-82
2021/08/14 09:04:27;;;;;;;;;7.00;5.00;;;;;23.40;44.11;101731.53;5000320;28;45387;-83
2021/08/14 09:06:55;;;;;;;;;4.50;2.50;;;;;23.41;43.66;101727.84;5000291;28;45268;-83
2021/08/14 09:09:31;;;;;;;;;8.25;5.75;;;;;23.40;43.33;101716.03;5000229;28;45332;-84
2021/08/14 09:12:06;;;;;;;;;6.50;4.50;;;;;23.44;43.42;101719.44;5000071;28;46153;-82
2021/08/14 09:14:50;;;;;;;;;3.25;3.25;;;;;23.55;43.80;101721.38;5000253;28;45280;-83
2021/08/14 09:17:15;;;;;;;;;3.25;3.25;;;;;23.62;43.92;101723.56;5000543;28;45411;-81
2021/08/14 09:19:40;;;;;;;;;3.75;3.50;;;;;23.68;43.51;101722.25;5000105;28;45295;-83
2021/08/14 09:22:17;;;;;;;;;4.25;4.25;;;;;23.73;42.99;101721.94;4999995;28;45471;-84
2021/08/14 09:24:43;;;;;;;;;5.50;4.00;;;;;23.74;42.83;101719.09;4999996;28;45229;-82
2021/08/14 09:27:11;;;;;;;;;4.00;4.00;;;;;23.78;42.25;101712.41;5000280;28;45792;-83
2021/08/14 09:29:39;;;;;;;;;6.25;5.00;;;;;23.76;42.17;101713.53;5000086;28;45221;-84
2021/08/14 09:32:09;;;;;;;;;4.75;4.00;;;;;23.78;42.26;101704.25;4999995;28;45399;-81
2021/08/14 09:34:40;;;;;;;;;6.00;5.00;;;;;23.87;42.28;101710.91;4999925;28;45438;-84
2021/08/14 09:37:16;;;;;;;;;5.25;4.50;;;;;23.91;42.42;101712.44;5000242;28;45372;-83
2021/08/14 09:39:57;;;;;;;;;5.00;3.75;;;;;23.98;41.80;101712.84;4999855;28;45450;-82
2021/08/14 09:42:23;;;;;;;;;3.50;3.25;;;;;24.01;42.31;101713.50;4999719;28;46131;-82
2021/08/14 09:45:10;;;;;;;;;4.75;4.75;;;;;24.08;42.40;101707.59;5000204;28;45386;-83
2021/08/14 09:47:36;;;;;;;;;8.25;5.25;;;;;24.14;41.64;101701.66;4999943;28;45366;-84
2021/08/14 09:50:01;;;;;;;;;5.75;4.00;;;;;24.20;41.42;101706.66;5003032;28;45328;-82
2021/08/14 09:52:26;;;;;;;;;4.00;3.00;;;;;24.25;41.62;101707.19;5003211;28;45298;-83
2021/08/14 09:54:55;;;;;;;;;6.25;4.00;;;;;24.32;41.19;101705.72;5003092;28;45303;-82
2021/08/14 09:57:21;;;;;;;;;2.75;2.00;;;;;24.36;41.89;101699.06;5003276;28;45578;-82
2021/08/14 09:59:48;;;;;;;;;3.75;3.00;;;;;24.47;41.83;101708.28;5003382;28;45407;-82
2021/08/14 10:02:23;;;;;;;;;5.75;4.75;;;;;24.52;40.90;101700.63;5002727;28;46617;-83
2021/08/14 10:04:50;;;;;;;;;2.25;2.00;;;;;24.55;41.00;101700.44;5003288;28;45395;-83
2021/08/14 10:07:16;;;;;;;;;7.00;4.00;;;;;24.57;40.89;101698.44;5003059;28;45260;-83
2021/08/14 10:09:42;;;;;;;;;4.25;3.25;;;;;24.62;41.92;101696.22;5002965;28;45628;-83
2021/08/14 10:12:10;;;;;;;;;5.00;5.00;;;;;24.65;41.28;101686.94;5002880;28;45526;-83
2021/08/14 10:14:37;;;;;;;;;4.00;4.00;;;;;24.71;41.31;101698.25;5003014;28;45419;-83
2021/08/14 10:17:04;;;;;;;;;5.00;5.00;;;;;24.74;40.67;101692.56;5003197;28;45362;-83
2021/08/14 10:19:29;;;;;;;;;4.50;3.50;;;;;24.77;40.48;101684.16;5002860;28;45430;-82
2021/08/14 10:21:55;;;;;;;;;3.00;3.00;;;;;24.82;40.36;101691.09;5002739;28;46277;-82
2021/08/14 10:24:21;;;;;;;;;5.75;4.00;;;;;24.84;40.03;101678.19;5002608;28;45363;-83
2021/08/14 10:26:46;;;;;;;;;5.00;3.50;;;;;24.89;40.65;101678.69;5002809;28;45296;-83
2021/08/14 10:29:16;;;;;;;;;3.50;3.00;;;;;24.90;40.90;101678.56;5003007;28;45313;-83
2021/08/14 10:31:44;;;;;;;;;4.50;4.50;;;;;24.95;40.15;101676.34;5002887;28;47079;-82
2021/08/14 10:34:12;;;;;;;;;5.00;5.00;;;;;25.01;40.04;101676.84;5002424;28;45340;-83
2021/08/14 10:36:42;;;;;;;;;5.50;4.00;;;;;25.08;40.67;101662.59;5002985;28;45245;-83
2021/08/14 10:39:22;;;;;;;;;2.75;2.75;;;;;25.15;40.35;101669.31;5002315;28;45427;-83
2021/08/14 10:41:50;;;;;;;;;5.50;5.50;;;;;25.11;39.69;101658.78;5002528;28;45281;-83
2021/08/14 10:44:38;;;;;;;;;6.25;5.25;;;;;25.14;39.88;101653.03;5002436;28;45503;-82
2021/08/14 10:47:05;;;;;;;;;5.00;3.50;;;;;25.17;40.09;101651.94;5002838;28;45240;-80
2021/08/14 10:49:33;;;;;;;;;4.75;4.00;;;;;25.20;39.96;101649.81;5002411;28;45249;-81
2021/08/14 10:52:01;;;;;;;;;4.00;3.00;;;;;25.22;40.19;101649.69;5002229;28;45565;-80
2021/08/14 10:54:35;;;;;;;;;5.25;5.25;;;;;25.26;40.37;101656.63;5002101;28;45356;-81
2021/08/14 10:57:04;;;;;;;;;3.75;3.75;;;;;25.35;39.51;101657.81;5002426;28;45411;-81
2021/08/14 10:59:38;;;;;;;;;4.75;4.75;;;;;25.38;40.03;101650.25;5002213;28;45420;-82
2021/08/14 11:02:06;;;;;;;;;4.00;4.00;;;;;25.42;39.71;101643.53;5001630;28;46068;-80
2021/08/14 11:05:03;;;;;;;;;6.00;6.00;;;;;25.46;39.46;101646.88;5002266;28;45504;-82
2021/08/14 11:07:30;;;;;;;;;8.00;4.25;;;;;25.41;39.63;101630.88;4979700;28;45409;-82
2021/08/14 11:09:55;;;;;;;;;7.00;6.00;;;;;25.49;39.97;101642.03;5001876;28;45427;-81
2021/08/14 11:12:36;;;;;;;;;6.25;5.75;;;;;25.53;39.72;101639.94;5002064;28;46406;-82
2021/08/14 11:15:20;;;;;;;;;5.00;5.00;;;;;25.56;39.05;101630.59;5001882;28;45257;-83
2021/08/14 11:17:58;;;;;;;;;5.00;5.00;;;;;25.57;39.13;101633.19;5002154;28;45423;-83
2021/08/14 11:20:23;;;;;;;;;6.50;6.50;;;;;25.60;39.85;101627.47;5002055;28;45553;-84
2021/08/14 11:22:50;;;;;;;;;5.25;5.00;;;;;25.65;40.11;101632.59;5001931;28;46470;-83